sensor_id;sensor_type;location;lat;lon;timestamp;temperature;humidity
72277;SHT30;61204;49.980;8.358;2024-02-28T00:01:21;4.64;86.44
72277;SHT30;61204;49.980;8.358;2024-02-28T00:03:48;4.62;86.90
72277;SHT30;61204;49.980;8.358;2024-02-28T00:06:16;4.62;86.82
72277;SHT30;61204;49.980;8.358;2024-02-28T00:08:42;4.55;86.97
72277;SHT30;61204;49.980;8.358;2024-02-28T00:11:10;4.61;86.97
72277;SHT30;61204;49.980;8.358;2024-02-28T00:13:36;4.55;86.95
72277;SHT30;61204;49.980;8.358;2024-02-28T00:16:02;4.48;87.33
72277;SHT30;61204;49.980;8.358;2024-02-28T00:18:28;4.41;87.34
72277;SHT30;61204;49.980;8.358;2024-02-28T00:20:56;4.38;87.75
72277;SHT30;61204;49.980;8.358;2024-02-28T00:23:22;4.36;87.60
72277;SHT30;61204;49.980;8.358;2024-02-28T00:25:47;4.30;87.82
72277;SHT30;61204;49.980;8.358;2024-02-28T00:28:15;4.40;87.72
72277;SHT30;61204;49.980;8.358;2024-02-28T00:30:41;4.40;87.46
72277;SHT30;61204;49.980;8.358;2024-02-28T00:33:06;4.38;87.60
72277;SHT30;61204;49.980;8.358;2024-02-28T00:35:33;4.31;87.99
72277;SHT30;61204;49.980;8.358;2024-02-28T00:38:00;4.42;87.58
72277;SHT30;61204;49.980;8.358;2024-02-28T00:40:26;4.31;87.82
72277;SHT30;61204;49.980;8.358;2024-02-28T00:42:51;4.33;87.63
72277;SHT30;61204;49.980;8.358;2024-02-28T00:45:17;4.30;87.81
72277;SHT30;61204;49.980;8.358;2024-02-28T00:47:42;4.21;87.65
72277;SHT30;61204;49.980;8.358;2024-02-28T00:50:09;4.17;88.08
72277;SHT30;61204;49.980;8.358;2024-02-28T00:52:37;4.06;88.49
72277;SHT30;61204;49.980;8.358;2024-02-28T00:55:03;4.04;88.69
72277;SHT30;61204;49.980;8.358;2024-02-28T00:57:31;3.87;89.07
72277;SHT30;61204;49.980;8.358;2024-02-28T00:59:56;3.89;89.56
72277;SHT30;61204;49.980;8.358;2024-02-28T01:02:22;4.10;88.92
72277;SHT30;61204;49.980;8.358;2024-02-28T01:04:48;4.00;88.64
72277;SHT30;61204;49.980;8.358;2024-02-28T01:07:13;3.92;89.00
72277;SHT30;61204;49.980;8.358;2024-02-28T01:09:41;3.83;89.05
72277;SHT30;61204;49.980;8.358;2024-02-28T01:12:07;3.82;89.14
72277;SHT30;61204;49.980;8.358;2024-02-28T01:14:33;3.74;89.52
72277;SHT30;61204;49.980;8.358;2024-02-28T01:16:59;3.54;89.73
72277;SHT30;61204;49.980;8.358;2024-02-28T01:19:24;3.48;90.42
72277;SHT30;61204;49.980;8.358;2024-02-28T01:21:52;3.64;90.43
72277;SHT30;61204;49.980;8.358;2024-02-28T01:24:18;3.64;89.99
72277;SHT30;61204;49.980;8.358;2024-02-28T01:26:43;3.57;90.24
72277;SHT30;61204;49.980;8.358;2024-02-28T01:29:09;3.67;90.11
72277;SHT30;61204;49.980;8.358;2024-02-28T01:31:34;3.59;89.77
72277;SHT30;61204;49.980;8.358;2024-02-28T01:34:00;3.79;89.61
72277;SHT30;61204;49.980;8.358;2024-02-28T01:36:25;3.71;89.35
72277;SHT30;61204;49.980;8.358;2024-02-28T01:38:51;3.76;89.32
72277;SHT30;61204;49.980;8.358;2024-02-28T01:41:17;3.79;88.90
72277;SHT30;61204;49.980;8.358;2024-02-28T01:43:43;3.82;88.83
72277;SHT30;61204;49.980;8.358;2024-02-28T01:46:28;3.74;88.83
72277;SHT30;61204;49.980;8.358;2024-02-28T01:48:55;3.85;88.74
72277;SHT30;61204;49.980;8.358;2024-02-28T01:51:25;3.79;88.72
72277;SHT30;61204;49.980;8.358;2024-02-28T01:53:54;3.87;88.41
72277;SHT30;61204;49.980;8.358;2024-02-28T01:56:23;3.83;88.47
72277;SHT30;61204;49.980;8.358;2024-02-28T01:58:54;3.81;88.70
72277;SHT30;61204;49.980;8.358;2024-02-28T02:01:20;3.87;88.38
72277;SHT30;61204;49.980;8.358;2024-02-28T02:03:46;3.90;88.37
72277;SHT30;61204;49.980;8.358;2024-02-28T02:06:12;3.86;88.41
72277;SHT30;61204;49.980;8.358;2024-02-28T02:08:40;3.82;88.81
72277;SHT30;61204;49.980;8.358;2024-02-28T02:11:07;3.78;88.98
72277;SHT30;61204;49.980;8.358;2024-02-28T02:13:33;3.76;88.95
72277;SHT30;61204;49.980;8.358;2024-02-28T02:16:01;3.74;89.34
72277;SHT30;61204;49.980;8.358;2024-02-28T02:18:27;3.78;89.18
72277;SHT30;61204;49.980;8.358;2024-02-28T02:20:59;3.86;89.12
72277;SHT30;61204;49.980;8.358;2024-02-28T02:23:30;3.78;89.03
72277;SHT30;61204;49.980;8.358;2024-02-28T02:25:58;3.79;89.47
72277;SHT30;61204;49.980;8.358;2024-02-28T02:28:24;3.74;89.46
72277;SHT30;61204;49.980;8.358;2024-02-28T02:30:49;3.76;89.58
72277;SHT30;61204;49.980;8.358;2024-02-28T02:33:15;3.83;89.56
72277;SHT30;61204;49.980;8.358;2024-02-28T02:35:40;3.74;89.44
72277;SHT30;61204;49.980;8.358;2024-02-28T02:38:06;3.76;89.55
72277;SHT30;61204;49.980;8.358;2024-02-28T02:40:32;3.68;89.99
72277;SHT30;61204;49.980;8.358;2024-02-28T02:42:57;3.64;90.22
72277;SHT30;61204;49.980;8.358;2024-02-28T02:45:25;3.61;90.27
72277;SHT30;61204;49.980;8.358;2024-02-28T02:47:50;3.58;90.38
72277;SHT30;61204;49.980;8.358;2024-02-28T02:50:16;3.59;90.58
72277;SHT30;61204;49.980;8.358;2024-02-28T02:52:42;3.47;90.73
72277;SHT30;61204;49.980;8.358;2024-02-28T02:55:10;3.38;91.43
72277;SHT30;61204;49.980;8.358;2024-02-28T02:57:35;3.42;91.69
72277;SHT30;61204;49.980;8.358;2024-02-28T03:00:08;3.24;91.87
72277;SHT30;61204;49.980;8.358;2024-02-28T03:02:35;3.07;92.38
72277;SHT30;61204;49.980;8.358;2024-02-28T03:05:04;3.00;92.94
72277;SHT30;61204;49.980;8.358;2024-02-28T03:07:30;3.02;92.87
72277;SHT30;61204;49.980;8.358;2024-02-28T03:09:58;2.85;93.22
72277;SHT30;61204;49.980;8.358;2024-02-28T03:12:29;2.88;93.32
72277;SHT30;61204;49.980;8.358;2024-02-28T03:14:55;2.81;93.51
72277;SHT30;61204;49.980;8.358;2024-02-28T03:17:22;2.79;93.52
72277;SHT30;61204;49.980;8.358;2024-02-28T03:19:47;2.75;93.38
72277;SHT30;61204;49.980;8.358;2024-02-28T03:22:13;2.74;93.33
72277;SHT30;61204;49.980;8.358;2024-02-28T03:24:39;2.61;93.39
72277;SHT30;61204;49.980;8.358;2024-02-28T03:27:07;2.44;93.88
72277;SHT30;61204;49.980;8.358;2024-02-28T03:29:33;2.55;94.02
72277;SHT30;61204;49.980;8.358;2024-02-28T03:31:59;2.57;93.82
72277;SHT30;61204;49.980;8.358;2024-02-28T03:34:24;2.45;93.84
72277;SHT30;61204;49.980;8.358;2024-02-28T03:36:50;2.16;93.95
72277;SHT30;61204;49.980;8.358;2024-02-28T03:39:16;1.95;94.66
72277;SHT30;61204;49.980;8.358;2024-02-28T03:41:42;1.95;95.21
72277;SHT30;61204;49.980;8.358;2024-02-28T03:44:08;2.13;95.52
72277;SHT30;61204;49.980;8.358;2024-02-28T03:46:36;2.13;95.34
72277;SHT30;61204;49.980;8.358;2024-02-28T03:49:07;1.98;95.31
72277;SHT30;61204;49.980;8.358;2024-02-28T03:51:41;1.74;95.46
72277;SHT30;61204;49.980;8.358;2024-02-28T03:54:10;1.61;95.78
72277;SHT30;61204;49.980;8.358;2024-02-28T03:56:36;1.62;96.36
72277;SHT30;61204;49.980;8.358;2024-02-28T03:59:01;2.05;96.30
72277;SHT30;61204;49.980;8.358;2024-02-28T04:01:30;2.19;95.38
72277;SHT30;61204;49.980;8.358;2024-02-28T04:03:56;2.23;95.08
72277;SHT30;61204;49.980;8.358;2024-02-28T04:06:21;2.16;94.94
72277;SHT30;61204;49.980;8.358;2024-02-28T04:08:47;2.22;95.19
72277;SHT30;61204;49.980;8.358;2024-02-28T04:11:14;2.12;95.11
72277;SHT30;61204;49.980;8.358;2024-02-28T04:13:40;2.13;95.27
72277;SHT30;61204;49.980;8.358;2024-02-28T04:16:08;2.05;95.21
72277;SHT30;61204;49.980;8.358;2024-02-28T04:18:35;2.07;95.35
72277;SHT30;61204;49.980;8.358;2024-02-28T04:21:03;2.07;95.27
72277;SHT30;61204;49.980;8.358;2024-02-28T04:23:28;2.23;95.21
72277;SHT30;61204;49.980;8.358;2024-02-28T04:25:54;2.12;94.86
72277;SHT30;61204;49.980;8.358;2024-02-28T04:28:20;2.03;95.00
72277;SHT30;61204;49.980;8.358;2024-02-28T04:30:45;1.94;95.14
72277;SHT30;61204;49.980;8.358;2024-02-28T04:33:11;1.96;95.26
72277;SHT30;61204;49.980;8.358;2024-02-28T04:35:36;2.06;95.15
72277;SHT30;61204;49.980;8.358;2024-02-28T04:38:07;2.05;94.76
72277;SHT30;61204;49.980;8.358;2024-02-28T04:40:32;2.03;94.95
72277;SHT30;61204;49.980;8.358;2024-02-28T04:43:00;2.02;95.01
72277;SHT30;61204;49.980;8.358;2024-02-28T04:45:26;1.96;94.94
72277;SHT30;61204;49.980;8.358;2024-02-28T04:47:51;2.06;94.90
72277;SHT30;61204;49.980;8.358;2024-02-28T04:50:17;2.01;94.73
72277;SHT30;61204;49.980;8.358;2024-02-28T04:52:43;1.92;95.03
72277;SHT30;61204;49.980;8.358;2024-02-28T04:55:13;1.96;95.30
72277;SHT30;61204;49.980;8.358;2024-02-28T04:57:40;1.92;95.51
72277;SHT30;61204;49.980;8.358;2024-02-28T05:00:06;2.02;95.63
72277;SHT30;61204;49.980;8.358;2024-02-28T05:02:33;2.02;95.18
72277;SHT30;61204;49.980;8.358;2024-02-28T05:04:59;1.95;95.09
72277;SHT30;61204;49.980;8.358;2024-02-28T05:07:25;2.06;95.14
72277;SHT30;61204;49.980;8.358;2024-02-28T05:09:51;2.06;94.68
72277;SHT30;61204;49.980;8.358;2024-02-28T05:12:16;2.03;94.70
72277;SHT30;61204;49.980;8.358;2024-02-28T05:14:42;2.01;94.64
72277;SHT30;61204;49.980;8.358;2024-02-28T05:17:12;1.92;94.82
72277;SHT30;61204;49.980;8.358;2024-02-28T05:19:39;1.96;94.87
72277;SHT30;61204;49.980;8.358;2024-02-28T05:22:07;1.89;95.00
72277;SHT30;61204;49.980;8.358;2024-02-28T05:24:32;1.85;95.03
72277;SHT30;61204;49.980;8.358;2024-02-28T05:26:58;1.76;95.14
72277;SHT30;61204;49.980;8.358;2024-02-28T05:29:24;1.67;95.38
72277;SHT30;61204;49.980;8.358;2024-02-28T05:31:53;1.62;95.62
72277;SHT30;61204;49.980;8.358;2024-02-28T05:34:22;1.64;95.80
72277;SHT30;61204;49.980;8.358;2024-02-28T05:36:47;1.59;95.98
72277;SHT30;61204;49.980;8.358;2024-02-28T05:39:14;1.71;95.95
72277;SHT30;61204;49.980;8.358;2024-02-28T05:41:39;1.76;95.61
72277;SHT30;61204;49.980;8.358;2024-02-28T05:44:05;1.64;95.62
72277;SHT30;61204;49.980;8.358;2024-02-28T05:46:30;1.48;95.95
72277;SHT30;61204;49.980;8.358;2024-02-28T05:48:56;1.51;96.11
72277;SHT30;61204;49.980;8.358;2024-02-28T05:51:21;1.36;96.38
72277;SHT30;61204;49.980;8.358;2024-02-28T05:53:47;1.41;96.47
72277;SHT30;61204;49.980;8.358;2024-02-28T05:56:13;1.46;96.53
72277;SHT30;61204;49.980;8.358;2024-02-28T05:58:47;1.57;96.24
72277;SHT30;61204;49.980;8.358;2024-02-28T06:01:17;1.50;96.26
72277;SHT30;61204;49.980;8.358;2024-02-28T06:03:46;1.43;96.44
72277;SHT30;61204;49.980;8.358;2024-02-28T06:06:15;1.68;96.31
72277;SHT30;61204;49.980;8.358;2024-02-28T06:08:42;1.62;95.97
72277;SHT30;61204;49.980;8.358;2024-02-28T06:11:08;1.57;96.11
72277;SHT30;61204;49.980;8.358;2024-02-28T06:13:36;1.78;96.13
72277;SHT30;61204;49.980;8.358;2024-02-28T06:16:02;1.74;95.73
72277;SHT30;61204;49.980;8.358;2024-02-28T06:18:29;1.76;95.62
72277;SHT30;61204;49.980;8.358;2024-02-28T06:20:58;1.75;95.60
72277;SHT30;61204;49.980;8.358;2024-02-28T06:23:25;1.72;95.49
72277;SHT30;61204;49.980;8.358;2024-02-28T06:25:51;1.87;95.42
72277;SHT30;61204;49.980;8.358;2024-02-28T06:28:17;1.87;95.27
72277;SHT30;61204;49.980;8.358;2024-02-28T06:30:43;1.86;95.12
72277;SHT30;61204;49.980;8.358;2024-02-28T06:33:13;2.06;94.87
72277;SHT30;61204;49.980;8.358;2024-02-28T06:35:41;2.22;94.44
72277;SHT30;61204;49.980;8.358;2024-02-28T06:38:07;2.26;93.89
72277;SHT30;61204;49.980;8.358;2024-02-28T06:40:33;2.40;93.73
72277;SHT30;61204;49.980;8.358;2024-02-28T06:43:00;2.54;93.09
72277;SHT30;61204;49.980;8.358;2024-02-28T06:45:26;2.74;92.84
72277;SHT30;61204;49.980;8.358;2024-02-28T06:47:52;2.85;92.19
72277;SHT30;61204;49.980;8.358;2024-02-28T06:50:18;2.88;91.61
72277;SHT30;61204;49.980;8.358;2024-02-28T06:52:43;3.00;91.56
72277;SHT30;61204;49.980;8.358;2024-02-28T06:55:09;3.09;90.86
72277;SHT30;61204;49.980;8.358;2024-02-28T06:57:41;3.19;91.17
72277;SHT30;61204;49.980;8.358;2024-02-28T07:00:10;3.20;90.34
72277;SHT30;61204;49.980;8.358;2024-02-28T07:02:40;3.20;90.36
72277;SHT30;61204;49.980;8.358;2024-02-28T07:05:06;3.23;90.05
72277;SHT30;61204;49.980;8.358;2024-02-28T07:07:34;3.20;90.24
72277;SHT30;61204;49.980;8.358;2024-02-28T07:09:59;3.16;89.99
72277;SHT30;61204;49.980;8.358;2024-02-28T07:12:27;3.14;90.13
72277;SHT30;61204;49.980;8.358;2024-02-28T07:14:53;3.05;90.48
72277;SHT30;61204;49.980;8.358;2024-02-28T07:17:20;2.97;90.76
72277;SHT30;61204;49.980;8.358;2024-02-28T07:19:48;3.09;91.17
72277;SHT30;61204;49.980;8.358;2024-02-28T07:22:14;3.27;90.15
72277;SHT30;61204;49.980;8.358;2024-02-28T07:24:41;3.16;90.72
72277;SHT30;61204;49.980;8.358;2024-02-28T07:27:07;3.13;90.28
72277;SHT30;61204;49.980;8.358;2024-02-28T07:29:33;3.07;90.75
72277;SHT30;61204;49.980;8.358;2024-02-28T07:31:59;3.07;90.74
72277;SHT30;61204;49.980;8.358;2024-02-28T07:34:27;3.31;90.40
72277;SHT30;61204;49.980;8.358;2024-02-28T07:36:53;3.16;90.35
72277;SHT30;61204;49.980;8.358;2024-02-28T07:39:18;3.26;90.86
72277;SHT30;61204;49.980;8.358;2024-02-28T07:41:46;3.20;90.34
72277;SHT30;61204;49.980;8.358;2024-02-28T07:44:12;3.19;90.45
72277;SHT30;61204;49.980;8.358;2024-02-28T07:46:41;3.12;90.66
72277;SHT30;61204;49.980;8.358;2024-02-28T07:49:07;3.17;90.76
72277;SHT30;61204;49.980;8.358;2024-02-28T07:51:33;3.28;90.73
72277;SHT30;61204;49.980;8.358;2024-02-28T07:53:59;3.37;90.80
72277;SHT30;61204;49.980;8.358;2024-02-28T07:56:25;3.50;90.51
72277;SHT30;61204;49.980;8.358;2024-02-28T07:58:53;3.75;89.01
72277;SHT30;61204;49.980;8.358;2024-02-28T08:01:18;3.54;88.78
72277;SHT30;61204;49.980;8.358;2024-02-28T08:03:44;3.52;89.21
72277;SHT30;61204;49.980;8.358;2024-02-28T08:06:10;3.74;88.83
72277;SHT30;61204;49.980;8.358;2024-02-28T08:08:36;4.07;88.37
72277;SHT30;61204;49.980;8.358;2024-02-28T08:11:02;4.38;87.28
72277;SHT30;61204;49.980;8.358;2024-02-28T08:13:28;4.48;86.45
72277;SHT30;61204;49.980;8.358;2024-02-28T08:15:55;4.61;86.13
72277;SHT30;61204;49.980;8.358;2024-02-28T08:18:21;4.87;85.16
72277;SHT30;61204;49.980;8.358;2024-02-28T08:20:47;4.59;84.78
72277;SHT30;61204;49.980;8.358;2024-02-28T08:23:12;4.78;84.81
72277;SHT30;61204;49.980;8.358;2024-02-28T08:25:38;5.04;83.72
72277;SHT30;61204;49.980;8.358;2024-02-28T08:28:04;5.42;84.65
72277;SHT30;61204;49.980;8.358;2024-02-28T08:30:30;5.58;81.14
72277;SHT30;61204;49.980;8.358;2024-02-28T08:32:56;5.89;83.93
72277;SHT30;61204;49.980;8.358;2024-02-28T08:35:23;6.04;79.64
72277;SHT30;61204;49.980;8.358;2024-02-28T08:37:49;6.24;79.96
72277;SHT30;61204;49.980;8.358;2024-02-28T08:40:15;6.40;79.55
72277;SHT30;61204;49.980;8.358;2024-02-28T08:42:43;6.49;77.56
72277;SHT30;61204;49.980;8.358;2024-02-28T08:45:09;6.69;80.28
72277;SHT30;61204;49.980;8.358;2024-02-28T08:47:35;6.68;77.08
72277;SHT30;61204;49.980;8.358;2024-02-28T08:50:00;6.96;77.88
72277;SHT30;61204;49.980;8.358;2024-02-28T08:52:26;7.17;75.84
72277;SHT30;61204;49.980;8.358;2024-02-28T08:54:51;7.31;74.86
72277;SHT30;61204;49.980;8.358;2024-02-28T08:57:21;7.24;76.23
72277;SHT30;61204;49.980;8.358;2024-02-28T08:59:49;7.51;76.01
72277;SHT30;61204;49.980;8.358;2024-02-28T09:02:15;7.65;74.22
72277;SHT30;61204;49.980;8.358;2024-02-28T09:04:40;7.72;74.46
72277;SHT30;61204;49.980;8.358;2024-02-28T09:07:06;8.42;70.97
72277;SHT30;61204;49.980;8.358;2024-02-28T09:09:31;7.97;73.25
72277;SHT30;61204;49.980;8.358;2024-02-28T09:12:01;7.34;73.43
72277;SHT30;61204;49.980;8.358;2024-02-28T09:14:28;7.04;75.25
72277;SHT30;61204;49.980;8.358;2024-02-28T09:16:54;6.96;75.89
72277;SHT30;61204;49.980;8.358;2024-02-28T09:19:25;7.07;75.93
72277;SHT30;61204;49.980;8.358;2024-02-28T09:21:52;7.28;74.14
72277;SHT30;61204;49.980;8.358;2024-02-28T09:24:18;7.68;74.09
72277;SHT30;61204;49.980;8.358;2024-02-28T09:26:45;7.73;72.87
72277;SHT30;61204;49.980;8.358;2024-02-28T09:29:11;7.61;73.48
72277;SHT30;61204;49.980;8.358;2024-02-28T09:31:37;7.97;73.51
72277;SHT30;61204;49.980;8.358;2024-02-28T09:34:02;7.77;74.00
72277;SHT30;61204;49.980;8.358;2024-02-28T09:36:39;7.75;73.76
72277;SHT30;61204;49.980;8.358;2024-02-28T09:39:06;7.65;72.89
72277;SHT30;61204;49.980;8.358;2024-02-28T09:41:31;7.65;73.66
72277;SHT30;61204;49.980;8.358;2024-02-28T09:43:58;7.68;72.76
72277;SHT30;61204;49.980;8.358;2024-02-28T09:46:25;7.72;73.35
72277;SHT30;61204;49.980;8.358;2024-02-28T09:48:52;8.21;74.35
72277;SHT30;61204;49.980;8.358;2024-02-28T09:51:21;7.73;72.35
72277;SHT30;61204;49.980;8.358;2024-02-28T09:53:49;7.47;73.47
72277;SHT30;61204;49.980;8.358;2024-02-28T09:56:16;7.79;74.57
72277;SHT30;61204;49.980;8.358;2024-02-28T09:58:42;8.94;71.36
72277;SHT30;61204;49.980;8.358;2024-02-28T10:01:11;9.35;68.07
72277;SHT30;61204;49.980;8.358;2024-02-28T10:03:40;10.28;67.15
72277;SHT30;61204;49.980;8.358;2024-02-28T10:06:09;10.67;64.49
72277;SHT30;61204;49.980;8.358;2024-02-28T10:08:35;10.35;64.36
72277;SHT30;61204;49.980;8.358;2024-02-28T10:11:02;9.91;66.75
72277;SHT30;61204;49.980;8.358;2024-02-28T10:13:28;10.11;66.75
72277;SHT30;61204;49.980;8.358;2024-02-28T10:15:54;10.67;65.11
72277;SHT30;61204;49.980;8.358;2024-02-28T10:18:20;10.63;64.72
72277;SHT30;61204;49.980;8.358;2024-02-28T10:20:47;10.08;66.54
72277;SHT30;61204;49.980;8.358;2024-02-28T10:23:12;10.17;66.29
72277;SHT30;61204;49.980;8.358;2024-02-28T10:25:57;10.96;62.80
72277;SHT30;61204;49.980;8.358;2024-02-28T10:28:22;11.28;62.49
72277;SHT30;61204;49.980;8.358;2024-02-28T10:30:48;11.03;64.00
72277;SHT30;61204;49.980;8.358;2024-02-28T10:33:15;10.73;63.08
72277;SHT30;61204;49.980;8.358;2024-02-28T10:35:42;11.70;61.74
72277;SHT30;61204;49.980;8.358;2024-02-28T10:38:11;12.31;60.32
72277;SHT30;61204;49.980;8.358;2024-02-28T10:40:41;11.91;59.15
72277;SHT30;61204;49.980;8.358;2024-02-28T10:43:10;12.04;64.03
72277;SHT30;61204;49.980;8.358;2024-02-28T10:45:38;13.01;59.49
72277;SHT30;61204;49.980;8.358;2024-02-28T10:48:05;13.51;59.70
72277;SHT30;61204;49.980;8.358;2024-02-28T10:50:35;13.41;57.68
72277;SHT30;61204;49.980;8.358;2024-02-28T10:53:03;12.92;58.03
72277;SHT30;61204;49.980;8.358;2024-02-28T10:55:34;12.94;57.60
72277;SHT30;61204;49.980;8.358;2024-02-28T10:58:10;12.73;56.84
72277;SHT30;61204;49.980;8.358;2024-02-28T11:00:41;13.07;56.58
72277;SHT30;61204;49.980;8.358;2024-02-28T11:03:15;12.41;57.93
72277;SHT30;61204;49.980;8.358;2024-02-28T11:05:44;12.45;61.38
72277;SHT30;61204;49.980;8.358;2024-02-28T11:08:28;13.51;55.34
72277;SHT30;61204;49.980;8.358;2024-02-28T11:11:03;11.24;60.70
72277;SHT30;61204;49.980;8.358;2024-02-28T11:13:30;11.28;64.09
72277;SHT30;61204;49.980;8.358;2024-02-28T11:16:09;11.84;61.76
72277;SHT30;61204;49.980;8.358;2024-02-28T11:18:36;12.34;59.22
72277;SHT30;61204;49.980;8.358;2024-02-28T11:21:16;13.25;58.34
72277;SHT30;61204;49.980;8.358;2024-02-28T11:23:46;13.37;56.93
72277;SHT30;61204;49.980;8.358;2024-02-28T11:26:12;13.28;59.05
72277;SHT30;61204;49.980;8.358;2024-02-28T11:28:39;13.28;56.23
72277;SHT30;61204;49.980;8.358;2024-02-28T11:31:07;13.25;56.30
72277;SHT30;61204;49.980;8.358;2024-02-28T11:33:33;13.35;57.11
72277;SHT30;61204;49.980;8.358;2024-02-28T11:35:59;13.29;55.37
72277;SHT30;61204;49.980;8.358;2024-02-28T11:38:26;13.69;55.38
72277;SHT30;61204;49.980;8.358;2024-02-28T11:40:53;14.22;52.43
72277;SHT30;61204;49.980;8.358;2024-02-28T11:43:21;14.01;55.69
72277;SHT30;61204;49.980;8.358;2024-02-28T11:45:49;13.04;57.19
72277;SHT30;61204;49.980;8.358;2024-02-28T11:48:16;12.70;55.88
72277;SHT30;61204;49.980;8.358;2024-02-28T11:50:42;11.56;60.21
72277;SHT30;61204;49.980;8.358;2024-02-28T11:53:11;11.79;60.71
72277;SHT30;61204;49.980;8.358;2024-02-28T11:55:36;11.27;60.73
72277;SHT30;61204;49.980;8.358;2024-02-28T11:58:08;11.48;60.50
72277;SHT30;61204;49.980;8.358;2024-02-28T12:00:50;12.58;60.20
72277;SHT30;61204;49.980;8.358;2024-02-28T12:03:24;12.80;57.36
72277;SHT30;61204;49.980;8.358;2024-02-28T12:05:52;13.42;55.96
72277;SHT30;61204;49.980;8.358;2024-02-28T12:08:19;14.25;52.76
72277;SHT30;61204;49.980;8.358;2024-02-28T12:10:46;14.44;51.55
72277;SHT30;61204;49.980;8.358;2024-02-28T12:13:17;14.21;50.81
72277;SHT30;61204;49.980;8.358;2024-02-28T12:15:45;14.06;51.44
72277;SHT30;61204;49.980;8.358;2024-02-28T12:18:11;14.91;51.76
72277;SHT30;61204;49.980;8.358;2024-02-28T12:20:37;14.93;50.36
72277;SHT30;61204;49.980;8.358;2024-02-28T12:23:06;15.48;48.09
72277;SHT30;61204;49.980;8.358;2024-02-28T12:25:33;15.01;49.75
72277;SHT30;61204;49.980;8.358;2024-02-28T12:28:01;14.66;50.49
72277;SHT30;61204;49.980;8.358;2024-02-28T12:30:28;13.86;51.41
72277;SHT30;61204;49.980;8.358;2024-02-28T12:32:53;13.20;52.74
72277;SHT30;61204;49.980;8.358;2024-02-28T12:35:19;12.75;53.97
72277;SHT30;61204;49.980;8.358;2024-02-28T12:37:45;13.01;51.31
72277;SHT30;61204;49.980;8.358;2024-02-28T12:40:11;14.03;50.15
72277;SHT30;61204;49.980;8.358;2024-02-28T12:42:39;14.44;51.50
72277;SHT30;61204;49.980;8.358;2024-02-28T12:45:05;14.54;50.40
72277;SHT30;61204;49.980;8.358;2024-02-28T12:47:30;15.52;48.32
72277;SHT30;61204;49.980;8.358;2024-02-28T12:49:56;15.65;49.39
72277;SHT30;61204;49.980;8.358;2024-02-28T12:52:22;14.72;48.23
72277;SHT30;61204;49.980;8.358;2024-02-28T12:54:49;15.08;45.82
72277;SHT30;61204;49.980;8.358;2024-02-28T12:57:15;15.28;47.50
72277;SHT30;61204;49.980;8.358;2024-02-28T12:59:42;15.39;45.32
72277;SHT30;61204;49.980;8.358;2024-02-28T13:02:10;14.20;47.81
72277;SHT30;61204;49.980;8.358;2024-02-28T13:04:36;14.59;46.55
72277;SHT30;61204;49.980;8.358;2024-02-28T13:07:01;14.77;47.73
72277;SHT30;61204;49.980;8.358;2024-02-28T13:09:30;14.28;45.94
72277;SHT30;61204;49.980;8.358;2024-02-28T13:11:55;14.20;46.22
72277;SHT30;61204;49.980;8.358;2024-02-28T13:14:21;14.39;45.18
72277;SHT30;61204;49.980;8.358;2024-02-28T13:16:47;14.59;44.94
72277;SHT30;61204;49.980;8.358;2024-02-28T13:19:14;14.51;48.87
72277;SHT30;61204;49.980;8.358;2024-02-28T13:21:39;13.93;46.89
72277;SHT30;61204;49.980;8.358;2024-02-28T13:24:05;14.13;45.66
72277;SHT30;61204;49.980;8.358;2024-02-28T13:26:31;14.52;44.11
72277;SHT30;61204;49.980;8.358;2024-02-28T13:28:56;14.69;44.05
72277;SHT30;61204;49.980;8.358;2024-02-28T13:31:24;14.04;44.89
72277;SHT30;61204;49.980;8.358;2024-02-28T13:33:49;13.94;45.49
72277;SHT30;61204;49.980;8.358;2024-02-28T13:36:15;13.80;45.59
72277;SHT30;61204;49.980;8.358;2024-02-28T13:38:41;14.21;44.53
72277;SHT30;61204;49.980;8.358;2024-02-28T13:41:06;14.48;45.71
72277;SHT30;61204;49.980;8.358;2024-02-28T13:43:33;13.80;46.35
72277;SHT30;61204;49.980;8.358;2024-02-28T13:46:01;14.27;46.36
72277;SHT30;61204;49.980;8.358;2024-02-28T13:48:27;14.38;45.91
72277;SHT30;61204;49.980;8.358;2024-02-28T13:50:59;13.93;48.13
72277;SHT30;61204;49.980;8.358;2024-02-28T13:53:27;14.28;48.64
72277;SHT30;61204;49.980;8.358;2024-02-28T13:55:57;14.73;45.69
72277;SHT30;61204;49.980;8.358;2024-02-28T13:58:23;14.82;45.70
72277;SHT30;61204;49.980;8.358;2024-02-28T14:00:51;14.94;43.82
72277;SHT30;61204;49.980;8.358;2024-02-28T14:03:16;14.45;42.85
72277;SHT30;61204;49.980;8.358;2024-02-28T14:05:45;14.55;46.79
72277;SHT30;61204;49.980;8.358;2024-02-28T14:08:10;14.18;46.88
72277;SHT30;61204;49.980;8.358;2024-02-28T14:10:38;14.48;46.58
72277;SHT30;61204;49.980;8.358;2024-02-28T14:13:07;14.42;48.36
72277;SHT30;61204;49.980;8.358;2024-02-28T14:15:32;14.76;46.69
72277;SHT30;61204;49.980;8.358;2024-02-28T14:18:00;14.87;47.20
72277;SHT30;61204;49.980;8.358;2024-02-28T14:20:26;14.31;45.69
72277;SHT30;61204;49.980;8.358;2024-02-28T14:22:52;14.06;47.07
72277;SHT30;61204;49.980;8.358;2024-02-28T14:25:18;13.77;47.69
72277;SHT30;61204;49.980;8.358;2024-02-28T14:27:47;14.17;47.86
72277;SHT30;61204;49.980;8.358;2024-02-28T14:30:15;13.84;49.00
72277;SHT30;61204;49.980;8.358;2024-02-28T14:32:43;13.45;48.57
72277;SHT30;61204;49.980;8.358;2024-02-28T14:35:12;13.31;48.83
72277;SHT30;61204;49.980;8.358;2024-02-28T14:37:41;13.35;51.41
72277;SHT30;61204;49.980;8.358;2024-02-28T14:40:08;13.62;50.34
72277;SHT30;61204;49.980;8.358;2024-02-28T14:42:39;13.86;49.22
72277;SHT30;61204;49.980;8.358;2024-02-28T14:45:10;13.08;49.22
72277;SHT30;61204;49.980;8.358;2024-02-28T14:47:40;13.46;50.02
72277;SHT30;61204;49.980;8.358;2024-02-28T14:50:08;13.55;49.43
72277;SHT30;61204;49.980;8.358;2024-02-28T14:52:41;13.07;50.48
72277;SHT30;61204;49.980;8.358;2024-02-28T14:55:08;13.59;49.29
72277;SHT30;61204;49.980;8.358;2024-02-28T14:57:39;14.11;49.26
72277;SHT30;61204;49.980;8.358;2024-02-28T15:00:06;14.04;48.74
72277;SHT30;61204;49.980;8.358;2024-02-28T15:02:43;14.20;48.05
72277;SHT30;61204;49.980;8.358;2024-02-28T15:05:11;13.84;49.35
72277;SHT30;61204;49.980;8.358;2024-02-28T15:07:37;13.73;50.05
72277;SHT30;61204;49.980;8.358;2024-02-28T15:10:07;13.70;49.40
72277;SHT30;61204;49.980;8.358;2024-02-28T15:12:33;14.03;47.63
72277;SHT30;61204;49.980;8.358;2024-02-28T15:15:01;14.32;46.34
72277;SHT30;61204;49.980;8.358;2024-02-28T15:17:28;13.99;47.01
72277;SHT30;61204;49.980;8.358;2024-02-28T15:19:56;13.93;48.14
72277;SHT30;61204;49.980;8.358;2024-02-28T15:22:22;14.22;47.50
72277;SHT30;61204;49.980;8.358;2024-02-28T15:24:48;14.49;46.96
72277;SHT30;61204;49.980;8.358;2024-02-28T15:27:14;14.79;45.15
72277;SHT30;61204;49.980;8.358;2024-02-28T15:29:40;14.51;46.74
72277;SHT30;61204;49.980;8.358;2024-02-28T15:32:06;14.16;46.88
72277;SHT30;61204;49.980;8.358;2024-02-28T15:34:31;13.65;46.49
72277;SHT30;61204;49.980;8.358;2024-02-28T15:36:57;13.91;46.96
72277;SHT30;61204;49.980;8.358;2024-02-28T15:39:25;13.84;48.57